createdAt,value
2022-11-22T00:00:54.345Z,17.33
2022-11-22T00:03:22.426Z,15.77
2022-11-22T00:05:50.285Z,16.38
2022-11-22T00:08:18.442Z,15.00
2022-11-22T00:10:46.348Z,14.55
2022-11-22T00:13:14.210Z,16.52
2022-11-22T00:15:42.074Z,12.70
2022-11-22T00:18:11.718Z,10.73
2022-11-22T00:20:39.626Z,11.02
2022-11-22T00:23:07.509Z,14.98
2022-11-22T00:25:35.383Z,14.43
2022-11-22T00:28:03.289Z,13.40
2022-11-22T00:30:31.099Z,11.20
2022-11-22T00:32:58.983Z,15.73
2022-11-22T00:35:28.304Z,14.85
2022-11-22T00:37:56.235Z,11.65
2022-11-22T00:40:24.152Z,16.00
2022-11-22T00:42:52.076Z,16.73
2022-11-22T00:45:19.880Z,9.63
2022-11-22T00:47:47.762Z,13.43
2022-11-22T00:50:15.739Z,14.13
2022-11-22T00:52:45.030Z,13.45
2022-11-22T00:55:12.896Z,11.57
2022-11-22T00:57:40.817Z,14.88
2022-11-22T01:00:10.270Z,12.57
2022-11-22T01:02:38.219Z,10.80
2022-11-22T01:05:06.708Z,10.98
2022-11-22T01:07:34.613Z,15.32
2022-11-22T01:10:03.884Z,15.32
2022-11-22T01:12:31.778Z,9.88
2022-11-22T01:14:59.656Z,11.60
2022-11-22T01:17:28.235Z,12.43
2022-11-22T01:19:56.103Z,9.85
2022-11-22T01:22:23.976Z,13.02
2022-11-22T01:24:51.840Z,14.32
2022-11-22T01:27:21.133Z,17.20
2022-11-22T01:29:48.984Z,14.60
2022-11-22T01:32:16.875Z,10.05
2022-11-22T01:34:44.686Z,19.83
2022-11-22T01:37:12.529Z,11.48
2022-11-22T01:39:40.388Z,13.68
2022-11-22T01:42:08.334Z,9.30
2022-11-22T01:44:37.535Z,21.75
2022-11-22T01:47:08.976Z,7.85
2022-11-22T01:49:40.526Z,8.13
2022-11-22T01:52:15.095Z,8.30
2022-11-22T01:54:47.082Z,8.98
2022-11-22T01:57:18.513Z,11.70
2022-11-22T01:59:53.053Z,10.77
2022-11-22T02:02:20.941Z,12.88
2022-11-22T02:04:52.028Z,11.80
2022-11-22T02:07:23.736Z,12.45
2022-11-22T02:09:53.842Z,13.48
2022-11-22T02:12:27.962Z,12.75
2022-11-22T02:14:58.292Z,11.45
2022-11-22T02:17:27.314Z,13.10
2022-11-22T02:19:56.632Z,14.88
2022-11-22T02:22:32.565Z,14.15
2022-11-22T02:25:08.041Z,10.85
2022-11-22T02:27:37.291Z,9.85
2022-11-22T02:30:06.008Z,9.63
2022-11-22T02:32:33.833Z,11.27
2022-11-22T02:35:01.710Z,16.40
2022-11-22T02:37:32.820Z,14.43
2022-11-22T02:40:06.160Z,10.93
2022-11-22T02:42:35.085Z,13.05
2022-11-22T02:45:04.806Z,12.63
2022-11-22T02:47:32.722Z,12.55
2022-11-22T02:50:00.620Z,14.25
2022-11-22T02:52:28.526Z,11.70
2022-11-22T02:54:56.694Z,8.95
2022-11-22T02:57:24.669Z,9.10
2022-11-22T02:59:52.567Z,10.43
2022-11-22T03:02:21.812Z,9.82
2022-11-22T03:04:49.800Z,13.93
2022-11-22T03:07:18.384Z,10.40
2022-11-22T03:09:46.362Z,11.65
2022-11-22T03:12:14.197Z,11.48
2022-11-22T03:14:42.905Z,12.57
2022-11-22T03:17:10.728Z,8.30
2022-11-22T03:19:39.995Z,14.55
2022-11-22T03:22:07.906Z,13.15
2022-11-22T03:24:35.858Z,8.23
2022-11-22T03:27:03.756Z,12.20
2022-11-22T03:29:31.962Z,9.77
2022-11-22T03:32:00.025Z,14.63
2022-11-22T03:34:28.164Z,11.82
2022-11-22T03:36:57.454Z,13.77
2022-11-22T03:39:25.535Z,13.60
2022-11-22T03:41:55.382Z,10.20
2022-11-22T03:44:23.377Z,10.80
2022-11-22T03:46:51.255Z,9.32
2022-11-22T03:49:19.220Z,13.75
2022-11-22T03:51:47.051Z,9.70
2022-11-22T03:54:16.418Z,15.73
2022-11-22T03:56:44.250Z,13.63
2022-11-22T03:59:12.118Z,15.20
2022-11-22T04:01:40.018Z,12.07
2022-11-22T04:04:07.966Z,9.27
2022-11-22T04:06:35.829Z,12.07
2022-11-22T04:09:03.738Z,10.38
2022-11-22T04:11:32.989Z,14.10
2022-11-22T04:14:18.131Z,7.70
2022-11-22T04:16:45.937Z,13.57
2022-11-22T04:19:13.817Z,12.07
2022-11-22T04:21:40.643Z,13.23
2022-11-22T04:24:28.539Z,14.00
2022-11-22T04:26:58.441Z,14.65
2022-11-22T04:29:26.353Z,13.63
2022-11-22T04:32:11.757Z,12.85
2022-11-22T04:34:39.694Z,10.93
2022-11-22T04:37:07.905Z,10.05
2022-11-22T04:39:35.936Z,14.38
2022-11-22T04:42:23.009Z,14.73
2022-11-22T04:44:50.873Z,11.60
2022-11-22T04:47:38.524Z,11.75
2022-11-22T04:50:29.135Z,14.75
2022-11-22T04:52:57.592Z,12.45
2022-11-22T04:55:26.004Z,11.13
2022-11-22T04:57:59.469Z,15.13
2022-11-22T05:00:28.612Z,11.48
2022-11-22T05:02:56.566Z,12.82
2022-11-22T05:05:24.937Z,15.75
2022-11-22T05:07:53.033Z,10.30
2022-11-22T05:10:26.139Z,10.90
2022-11-22T05:12:56.729Z,20.25
2022-11-22T05:15:25.135Z,10.88
2022-11-22T05:17:53.009Z,15.30
2022-11-22T05:20:21.160Z,13.52
2022-11-22T05:23:06.214Z,11.20
2022-11-22T05:25:34.138Z,11.30
2022-11-22T05:28:03.472Z,15.18
2022-11-22T05:30:31.390Z,10.52
2022-11-22T05:32:59.266Z,11.38
2022-11-22T05:35:27.158Z,14.45
2022-11-22T05:37:57.176Z,14.65
2022-11-22T05:40:25.481Z,15.45
2022-11-22T05:42:53.410Z,14.65
2022-11-22T05:45:22.675Z,17.05
2022-11-22T05:47:50.548Z,28.30
2022-11-22T05:50:18.431Z,30.92
2022-11-22T05:52:46.239Z,31.42
2022-11-22T05:55:14.098Z,43.30
2022-11-22T05:57:41.941Z,32.47
2022-11-22T06:00:10.914Z,18.88
2022-11-22T06:02:40.182Z,15.10
2022-11-22T06:05:09.080Z,19.98
2022-11-22T06:07:37.146Z,17.95
2022-11-22T06:10:05.458Z,12.75
2022-11-22T06:12:33.308Z,13.70
2022-11-22T06:15:01.273Z,18.33
2022-11-22T06:17:29.171Z,14.07
2022-11-22T06:20:02.819Z,17.25
2022-11-22T06:22:33.859Z,12.85
2022-11-22T06:25:01.945Z,17.42
2022-11-22T06:27:29.796Z,16.00
2022-11-22T06:29:57.623Z,19.52
2022-11-22T06:32:25.703Z,21.50
2022-11-22T06:34:53.636Z,15.30
2022-11-22T06:37:22.897Z,16.02
2022-11-22T06:39:51.101Z,21.23
2022-11-22T06:42:19.139Z,15.98
2022-11-22T06:44:47.009Z,16.02
2022-11-22T06:47:14.896Z,16.20
2022-11-22T06:49:42.748Z,27.00
2022-11-22T06:52:10.635Z,18.90
2022-11-22T06:54:39.960Z,22.75
2022-11-22T06:57:07.865Z,23.45
2022-11-22T06:59:36.147Z,19.20
2022-11-22T07:02:06.637Z,16.45
2022-11-22T07:04:34.871Z,19.83
2022-11-22T07:07:02.784Z,23.42
2022-11-22T07:09:30.934Z,23.73
2022-11-22T07:12:00.339Z,23.42
2022-11-22T07:14:28.179Z,24.65
2022-11-22T07:16:56.040Z,24.58
2022-11-22T07:19:23.887Z,20.40
2022-11-22T07:21:51.810Z,21.63
2022-11-22T07:24:19.665Z,21.55
2022-11-22T07:26:47.557Z,22.08
2022-11-22T07:29:16.764Z,23.13
2022-11-22T07:31:46.355Z,25.55
2022-11-22T07:34:14.400Z,25.25
2022-11-22T07:36:42.275Z,26.27
2022-11-22T07:39:10.117Z,28.98
2022-11-22T07:41:37.974Z,32.95
2022-11-22T07:44:06.066Z,28.27
2022-11-22T07:46:35.317Z,36.03
2022-11-22T07:49:03.478Z,41.20
2022-11-22T07:51:31.633Z,27.90
2022-11-22T07:53:59.543Z,34.47
2022-11-22T07:56:27.493Z,23.15
2022-11-22T07:58:56.100Z,30.75
2022-11-22T08:01:24.109Z,27.15
2022-11-22T08:03:53.362Z,29.90
2022-11-22T08:06:22.412Z,35.03
2022-11-22T08:08:50.261Z,29.77
2022-11-22T08:11:18.154Z,33.70
2022-11-22T08:13:46.016Z,43.28
2022-11-22T08:16:16.402Z,47.90
2022-11-22T08:18:48.098Z,51.20
2022-11-22T08:21:19.073Z,47.97
2022-11-22T08:23:48.404Z,55.28
2022-11-22T08:26:17.934Z,54.75
2022-11-22T08:28:46.073Z,59.17
2022-11-22T08:31:15.774Z,54.78
2022-11-22T08:33:43.677Z,51.58
2022-11-22T08:36:11.906Z,46.38
2022-11-22T08:38:41.184Z,56.50
2022-11-22T08:41:09.123Z,45.53
2022-11-22T08:43:37.504Z,55.25
2022-11-22T08:46:05.982Z,52.30
2022-11-22T08:48:35.343Z,55.38
2022-11-22T08:51:04.685Z,46.58
2022-11-22T08:53:33.692Z,44.90
2022-11-22T08:56:04.118Z,41.35
2022-11-22T08:58:32.838Z,36.92
2022-11-22T09:01:06.278Z,35.92
2022-11-22T09:03:36.002Z,33.25
2022-11-22T09:09:15.129Z,34.10
2022-11-22T09:11:42.086Z,39.78
2022-11-22T09:14:09.950Z,37.75
2022-11-22T09:16:37.804Z,28.95
2022-11-22T09:19:05.748Z,32.53
2022-11-22T09:21:33.693Z,30.40
2022-11-22T09:24:01.618Z,30.73
2022-11-22T09:26:30.592Z,25.85
2022-11-22T09:28:59.835Z,31.67
2022-11-22T09:31:27.667Z,19.77
2022-11-22T09:33:55.496Z,24.67
2022-11-22T09:36:26.279Z,20.63
2022-11-22T09:38:54.565Z,23.60
2022-11-22T09:41:48.485Z,19.88
2022-11-22T09:44:24.568Z,16.70
2022-11-22T09:46:54.725Z,21.67
2022-11-22T09:49:31.056Z,19.50
2022-11-22T09:52:07.251Z,27.08
2022-11-22T09:54:41.735Z,23.75
2022-11-22T09:57:15.726Z,19.88
2022-11-22T09:59:48.218Z,20.38
2022-11-22T10:02:20.788Z,18.95
2022-11-22T10:04:55.623Z,17.98
2022-11-22T10:07:29.816Z,19.08
2022-11-22T10:10:05.125Z,16.80
2022-11-22T10:12:38.607Z,16.75
2022-11-22T10:15:17.719Z,10.05
2022-11-22T10:17:54.032Z,16.45
2022-11-22T10:20:23.593Z,20.20
2022-11-22T10:22:52.034Z,16.67
2022-11-22T10:25:22.015Z,18.35
2022-11-22T10:27:59.206Z,20.70
2022-11-22T10:30:37.209Z,10.82
2022-11-22T10:33:15.220Z,17.48
2022-11-22T10:36:06.036Z,15.90
2022-11-22T10:38:45.020Z,10.27
2022-11-22T10:41:24.369Z,8.05
2022-11-22T10:44:04.080Z,17.73
2022-11-22T10:46:56.541Z,13.48
2022-11-22T10:49:39.882Z,9.45
2022-11-22T10:52:17.712Z,9.80
2022-11-22T10:54:52.180Z,9.93
2022-11-22T10:57:34.114Z,7.40
2022-11-22T11:00:17.547Z,7.38
2022-11-22T11:03:26.683Z,9.65
2022-11-22T11:11:42.242Z,10.32
2022-11-22T11:14:19.994Z,9.88
2022-11-22T11:16:48.858Z,13.15
2022-11-22T11:19:20.421Z,12.27
2022-11-22T11:21:56.957Z,8.73
2022-11-22T11:24:24.853Z,4.57
2022-11-22T11:26:55.510Z,7.50
2022-11-22T11:29:37.862Z,8.23
2022-11-22T11:32:09.369Z,6.75
2022-11-22T11:34:41.813Z,12.57
2022-11-22T11:37:22.334Z,7.10
2022-11-22T11:39:50.721Z,6.85
2022-11-22T11:42:28.313Z,12.75
2022-11-22T11:44:56.584Z,9.63
2022-11-22T11:47:42.062Z,9.38
2022-11-22T11:50:23.928Z,17.00
2022-11-22T11:52:55.069Z,14.05
2022-11-22T11:55:23.266Z,11.05
2022-11-22T11:57:54.310Z,5.65
2022-11-22T12:00:27.284Z,8.85
2022-11-22T12:03:00.863Z,9.77
2022-11-22T12:05:32.677Z,8.38
2022-11-22T12:08:02.119Z,11.13
2022-11-22T12:10:45.348Z,8.88
2022-11-22T12:13:22.642Z,7.82
2022-11-22T12:15:57.305Z,13.50
2022-11-22T12:18:42.693Z,9.48
2022-11-22T12:21:23.821Z,10.63
2022-11-22T12:24:19.523Z,10.18
2022-11-22T12:26:45.360Z,13.07
2022-11-22T12:29:15.001Z,18.65
2022-11-22T12:31:47.684Z,11.07
2022-11-22T12:34:22.012Z,12.45
2022-11-22T12:36:57.642Z,7.78
2022-11-22T12:39:30.551Z,10.20
2022-11-22T12:42:04.041Z,9.48
2022-11-22T12:44:45.940Z,8.52
2022-11-22T12:47:18.060Z,8.90
2022-11-22T12:49:51.596Z,7.47
2022-11-22T12:52:27.485Z,9.73
2022-11-22T12:55:03.551Z,9.73
2022-11-22T12:57:45.026Z,9.98
2022-11-22T13:00:17.149Z,7.13
2022-11-22T13:02:59.313Z,11.43
2022-11-22T13:05:32.576Z,11.57
2022-11-22T13:08:13.148Z,9.40
2022-11-22T13:10:51.737Z,11.35
2022-11-22T13:13:25.861Z,9.68
2022-11-22T13:15:56.450Z,6.32
2022-11-22T13:18:30.356Z,6.40
2022-11-22T13:21:08.639Z,6.10
2022-11-22T13:23:52.866Z,7.00
2022-11-22T13:26:30.945Z,7.80
2022-11-22T13:28:59.978Z,8.48
2022-11-22T13:31:27.945Z,10.27
2022-11-22T13:33:58.694Z,5.82
2022-11-22T13:36:49.190Z,7.65
2022-11-22T13:39:26.029Z,8.27
2022-11-22T13:42:04.358Z,6.43
2022-11-22T13:44:51.327Z,12.63
2022-11-22T13:47:42.620Z,8.45
2022-11-22T13:50:52.481Z,6.75
2022-11-22T13:53:33.398Z,10.52
2022-11-22T13:57:00.873Z,6.07
2022-11-22T13:59:29.130Z,9.63
2022-11-22T14:02:00.157Z,13.52
2022-11-22T14:04:46.480Z,10.38
2022-11-22T14:07:33.174Z,6.93
2022-11-22T14:10:03.304Z,4.93
2022-11-22T14:12:57.257Z,8.20
2022-11-22T14:15:39.950Z,9.32
2022-11-22T14:18:34.338Z,9.13
2022-11-22T14:21:06.200Z,9.18
2022-11-22T14:23:46.473Z,7.55
2022-11-22T14:26:25.713Z,9.80
2022-11-22T14:29:32.289Z,11.27
2022-11-22T14:32:04.984Z,9.88
2022-11-22T14:34:33.199Z,5.82
2022-11-22T14:37:43.786Z,7.85
2022-11-22T14:40:32.687Z,13.63
2022-11-22T14:43:03.546Z,5.75
2022-11-22T14:45:42.468Z,9.55
2022-11-22T14:48:20.712Z,12.73
2022-11-22T14:50:53.065Z,5.10
2022-11-22T14:53:34.531Z,11.15
2022-11-22T14:56:08.965Z,10.60
2022-11-22T14:58:40.335Z,10.50
2022-11-22T15:01:49.222Z,9.05
2022-11-22T15:09:14.763Z,11.07
2022-11-22T15:09:23.875Z,7.18
2022-11-22T15:11:31.901Z,11.35
2022-11-22T15:14:28.549Z,8.40
2022-11-22T15:57:33.391Z,14.63
2022-11-22T16:00:02.365Z,16.63
2022-11-22T16:02:32.063Z,11.63
2022-11-22T16:06:08.281Z,14.45
2022-11-22T16:07:52.509Z,11.07
2022-11-22T16:10:23.814Z,13.68
2022-11-22T16:12:55.632Z,8.75
2022-11-22T16:15:30.364Z,14.00
2022-11-22T16:18:09.551Z,9.63
2022-11-22T16:20:39.452Z,11.32
2022-11-22T16:23:20.109Z,10.82
2022-11-22T16:25:50.429Z,12.77
2022-11-22T16:28:34.143Z,11.27
2022-11-22T16:31:05.774Z,25.08
2022-11-22T16:33:33.965Z,15.85
2022-11-22T16:36:02.933Z,13.27
2022-11-22T16:38:31.067Z,24.58
2022-11-22T16:41:00.251Z,14.48
2022-11-22T16:44:17.592Z,17.05
2022-11-22T16:46:47.910Z,16.33
2022-11-22T16:49:20.364Z,13.05
2022-11-22T16:51:48.998Z,13.77
2022-11-22T16:54:19.280Z,12.68
2022-11-22T16:56:47.692Z,14.75
2022-11-22T16:59:15.541Z,11.25
2022-11-22T17:01:44.497Z,12.40
2022-11-22T17:04:25.289Z,14.15
2022-11-22T17:06:53.956Z,13.85
2022-11-22T17:09:22.267Z,13.07
2022-11-22T17:11:50.979Z,13.25
2022-11-22T17:14:19.554Z,15.52
2022-11-22T17:16:47.816Z,9.55
2022-11-22T17:19:51.732Z,14.55
2022-11-22T17:22:07.169Z,13.00
2022-11-22T17:24:35.239Z,23.05
2022-11-22T17:27:03.161Z,23.45
2022-11-22T17:32:19.934Z,21.27
2022-11-22T17:34:49.408Z,13.48
2022-11-22T17:37:17.353Z,15.65
2022-11-22T17:39:45.267Z,18.75
2022-11-22T17:42:13.297Z,12.68
2022-11-22T17:44:41.331Z,14.25
2022-11-22T17:47:09.204Z,9.90
2022-11-22T17:49:37.060Z,16.70
2022-11-22T17:52:06.299Z,16.70
2022-11-22T17:54:34.339Z,22.95
2022-11-22T17:57:02.163Z,19.52
2022-11-22T17:59:30.396Z,11.57
2022-11-22T18:01:58.750Z,13.05
2022-11-22T18:04:26.655Z,19.50
2022-11-22T18:06:54.550Z,15.98
2022-11-22T18:09:23.831Z,20.00
2022-11-22T18:11:51.677Z,12.38
2022-11-22T18:14:19.533Z,15.02
2022-11-22T18:16:47.400Z,14.70
2022-11-22T18:19:15.204Z,20.27
2022-11-22T18:21:43.188Z,14.38
2022-11-22T18:24:11.089Z,18.45
2022-11-22T18:26:41.301Z,13.40
2022-11-22T18:32:00.111Z,16.75
2022-11-22T18:34:29.012Z,15.57
2022-11-22T18:37:01.959Z,14.73
2022-11-22T18:39:32.393Z,13.07
2022-11-22T18:42:01.978Z,13.93
2022-11-22T18:44:29.918Z,15.63
2022-11-22T18:46:57.890Z,20.15
2022-11-22T18:49:25.826Z,18.13
2022-11-22T18:51:53.905Z,24.83
2022-11-22T18:54:22.874Z,19.42
2022-11-22T18:56:50.832Z,21.13
2022-11-22T18:59:20.310Z,19.10
2022-11-22T19:01:48.275Z,19.38
2022-11-22T19:04:17.223Z,17.70
2022-11-22T19:06:46.099Z,19.30
2022-11-22T19:09:14.280Z,17.85
2022-11-22T19:11:42.278Z,15.65
2022-11-22T19:14:10.388Z,14.77
2022-11-22T19:16:39.635Z,18.55
2022-11-22T19:19:08.446Z,14.27
2022-11-22T19:21:36.415Z,22.65
2022-11-22T19:24:04.773Z,12.70
2022-11-22T19:26:32.773Z,13.40
2022-11-22T19:29:02.580Z,18.30
2022-11-22T19:31:31.542Z,21.15
2022-11-22T19:34:01.529Z,14.88
2022-11-22T19:36:34.154Z,20.02
2022-11-22T19:39:03.690Z,16.67
2022-11-22T19:41:32.014Z,16.70
2022-11-22T19:44:00.078Z,19.88
2022-11-22T19:46:28.297Z,18.17
2022-11-22T19:48:57.955Z,13.40
2022-11-22T19:51:30.933Z,12.02
2022-11-22T19:54:02.244Z,12.57
2022-11-22T19:56:32.533Z,11.75
2022-11-22T19:59:01.847Z,16.50
2022-11-22T20:01:31.240Z,13.00
2022-11-22T20:04:00.647Z,15.65
2022-11-22T20:06:30.110Z,17.67
2022-11-22T20:09:01.923Z,15.57
2022-11-22T20:11:29.791Z,14.50
2022-11-22T20:13:57.843Z,19.10
2022-11-22T20:16:28.071Z,16.55
2022-11-22T20:18:56.937Z,16.83
2022-11-22T20:21:26.081Z,17.58
2022-11-22T20:23:55.490Z,15.95
2022-11-22T20:26:24.114Z,20.10
2022-11-22T20:28:56.308Z,15.68
2022-11-22T20:31:24.576Z,17.27
2022-11-22T20:33:54.263Z,16.70
2022-11-22T20:36:24.339Z,16.48
2022-11-22T20:38:52.837Z,17.45
2022-11-22T20:41:23.308Z,12.20
2022-11-22T20:43:51.160Z,15.95
2022-11-22T20:46:20.564Z,17.27
2022-11-22T20:48:52.095Z,14.05
2022-11-22T20:51:22.594Z,14.38
2022-11-22T20:53:51.280Z,17.17
2022-11-22T20:56:21.472Z,14.65
2022-11-22T20:58:50.049Z,15.65
2022-11-22T21:01:19.889Z,13.30
2022-11-22T21:03:48.723Z,15.00
2022-11-22T21:06:18.380Z,12.18
2022-11-22T21:08:46.709Z,14.63
2022-11-22T21:11:16.440Z,11.20
2022-11-22T21:13:47.286Z,13.52
2022-11-22T21:16:25.319Z,12.05
2022-11-22T21:18:54.406Z,10.05
2022-11-22T21:21:25.829Z,17.40
2022-11-22T21:23:55.094Z,21.17
2022-11-22T21:26:24.336Z,16.25
2022-11-22T21:28:54.530Z,13.98
2022-11-22T21:31:23.814Z,18.98
2022-11-22T21:33:52.869Z,14.93
2022-11-22T21:36:22.167Z,17.48
2022-11-22T21:38:50.150Z,13.63
2022-11-22T21:44:11.748Z,13.80
2022-11-22T21:46:40.270Z,11.20
2022-11-22T21:49:08.746Z,11.82
2022-11-22T21:51:36.676Z,13.82
2022-11-22T21:54:05.095Z,15.70
2022-11-22T21:56:33.169Z,15.95
2022-11-22T21:59:01.177Z,23.13
2022-11-22T22:01:30.614Z,13.13
2022-11-22T22:03:58.556Z,14.55
2022-11-22T22:06:27.262Z,12.98
2022-11-22T22:08:55.137Z,16.27
2022-11-22T22:11:23.349Z,13.77
2022-11-22T22:13:53.522Z,15.95
2022-11-22T22:16:23.735Z,13.65
2022-11-22T22:18:54.403Z,13.13
2022-11-22T22:21:22.735Z,14.93
2022-11-22T22:23:51.218Z,14.10
2022-11-22T22:26:19.146Z,14.30
2022-11-22T22:28:47.713Z,18.55
2022-11-22T22:31:21.443Z,16.20
2022-11-22T22:33:50.984Z,15.77
2022-11-22T22:36:20.618Z,15.70
2022-11-22T22:38:48.848Z,15.60
2022-11-22T22:41:17.147Z,15.55
2022-11-22T22:43:47.225Z,15.20
2022-11-22T22:46:17.357Z,17.27
2022-11-22T22:48:45.496Z,15.38
2022-11-22T22:51:15.070Z,14.90
2022-11-22T22:53:45.374Z,12.68
2022-11-22T22:56:14.995Z,16.38
2022-11-22T22:58:43.048Z,15.10
2022-11-22T23:01:14.616Z,15.88
2022-11-22T23:03:42.759Z,16.20
2022-11-22T23:06:12.706Z,10.85
2022-11-22T23:08:41.132Z,16.38
2022-11-22T23:11:11.818Z,12.20
2022-11-22T23:13:41.325Z,12.35
2022-11-22T23:16:11.159Z,12.50
2022-11-22T23:18:41.720Z,13.73
2022-11-22T23:21:11.886Z,20.17
2022-11-22T23:23:40.141Z,16.40
2022-11-22T23:26:11.606Z,13.52
2022-11-22T23:28:39.667Z,9.48
2022-11-22T23:31:08.896Z,16.23
2022-11-22T23:33:36.898Z,12.90
2022-11-22T23:36:05.703Z,12.07
2022-11-22T23:38:34.024Z,12.05
2022-11-22T23:41:02.222Z,14.13
2022-11-22T23:43:31.876Z,15.60
2022-11-22T23:46:00.141Z,13.57
2022-11-22T23:48:28.310Z,16.88
2022-11-22T23:50:56.315Z,14.07
2022-11-22T23:53:25.063Z,11.50
2022-11-22T23:55:52.943Z,18.83
2022-11-22T23:58:20.753Z,12.27
